Alberni-Clayoquot F, British Columbia

3:47 PM PST on February 08, 2016 (GMT -0800)
South Port | | Change Station
CLOSE
Current Station
Personal Weather Station
Location: Port Alberni, BC
Elevation: 342 ft
Nearby Weather Stations

Elev 342 ft 49.23 °N, 124.79 °W | Updated 34 seconds ago

Overcast
Overcast
48.8 °F
Feels Like 49 °F
N
0.0
Wind Variable Wind from North
Gusts 2.0 mph

Today
High -- | Low -- °F
--% Chance of Precip.
Yesterday
High -- | Low -- °F
Precip. -- in
Pressure 30.45 in
Visibility 20.0 miles
Clouds Overcast 24000 ft
Windchill 49 °F
Dew Point 46 °F
Humidity 90%
Rainfall 0.00 in
Snow Depth Not available.
7:40 AM 5:27 PM
New Moon, 0% visible
METAR CYQQ 082300Z 02003KT 20SM OVC240 09/06 A3044 RMK CI2 SLP310
Pressure 30.45 in
Visibility 20.0 miles
Clouds Overcast 24000 ft
Windchill 49 °F
Dew Point 46 °F
Humidity 90%
Rainfall 0.00 in
Snow Depth Not available.
7:40 AM 5:27 PM
New Moon, 0% visible
METAR CYQQ 082300Z 02003KT 20SM OVC240 09/06 A3044 RMK CI2 SLP310

10-Day Weather Forecast

Almanac

Astronomy

Feb. 08, 2016 Rise Set
Actual Time
Civil Twilight
Nautical Twilight
Astronomical Twilight
Moon
Length of Visible Light
Length of Day
Tomorrow will be .
, % of the Moon is Illuminated

Today's Extremes

Country Highs Country Lows

Community

WunderPhotos

Upload Photos

1,891,527 photos uploaded!

WunderBlog® & News

Nearby

Air Quality

  Air Quality AQ Index Pollutant
Not available.

Snow Depth

Station Depth Elevation

Earthquake Activity

City Distance Mag. Time & Date
Minimum magnitude displayed is 2.5.

Coastal Water Temperatures

Place Temperature

Stations

Nearby Weather Stations

Station Location Temp. Windchill Dew Point Humidity Wind Precip. Elev Updated Type
                   

Watches & Warnings

There are currently no watches in effect.